createdAt,value
2022-11-27T00:01:28.656Z,77.12
2022-11-27T00:03:56.274Z,77.69
2022-11-27T00:06:26.179Z,76.94
2022-11-27T00:08:53.132Z,77.20
2022-11-27T00:11:22.412Z,76.95
2022-11-27T00:13:50.626Z,77.57
2022-11-27T00:16:18.185Z,77.21
2022-11-27T00:18:45.416Z,77.15
2022-11-27T00:21:23.783Z,77.62
2022-11-27T00:23:52.349Z,77.45
2022-11-27T00:26:19.561Z,77.10
2022-11-27T00:28:46.796Z,77.78
2022-11-27T00:31:16.729Z,77.27
2022-11-27T00:33:44.149Z,77.92
2022-11-27T00:36:12.738Z,77.67
2022-11-27T00:38:39.679Z,78.73
2022-11-27T00:41:08.693Z,80.69
2022-11-27T00:43:43.922Z,80.38
2022-11-27T00:46:12.106Z,79.95
2022-11-27T00:48:39.145Z,79.55
2022-11-27T00:51:08.696Z,79.55
2022-11-27T00:53:35.670Z,79.34
2022-11-27T00:56:03.077Z,78.93
2022-11-27T00:58:29.793Z,78.81
2022-11-27T01:01:02.611Z,78.31
2022-11-27T01:03:30.516Z,76.95
2022-11-27T01:06:03.241Z,77.83
2022-11-27T01:08:30.104Z,77.96
2022-11-27T01:10:58.789Z,78.35
2022-11-27T01:13:32.287Z,78.65
2022-11-27T01:16:05.351Z,78.71
2022-11-27T01:18:32.745Z,79.15
2022-11-27T01:20:59.699Z,78.91
2022-11-27T01:23:27.203Z,78.28
2022-11-27T01:25:54.674Z,77.95
2022-11-27T01:28:22.837Z,77.52
2022-11-27T01:30:51.032Z,78.15
2022-11-27T01:33:19.069Z,77.97
2022-11-27T01:36:01.019Z,77.47
2022-11-27T01:38:28.949Z,77.54
2022-11-27T01:41:01.948Z,78.53
2022-11-27T01:43:43.042Z,79.05
2022-11-27T01:46:25.659Z,78.99
2022-11-27T01:48:54.447Z,79.03
2022-11-27T01:51:22.929Z,78.88
2022-11-27T01:53:51.965Z,78.84
2022-11-27T01:56:19.862Z,79.17
2022-11-27T01:58:47.272Z,79.34
2022-11-27T02:01:14.428Z,79.79
2022-11-27T02:03:41.233Z,79.54
2022-11-27T02:06:12.698Z,80.10
2022-11-27T02:08:40.591Z,79.94
2022-11-27T02:11:16.204Z,80.58
2022-11-27T02:13:49.838Z,80.43
2022-11-27T02:16:45.640Z,79.64
2022-11-27T02:19:30.402Z,79.43
2022-11-27T02:22:15.228Z,79.78
2022-11-27T02:24:56.237Z,79.79
2022-11-27T02:27:44.171Z,79.85
2022-11-27T02:30:12.295Z,79.32
2022-11-27T02:32:48.331Z,79.57
2022-11-27T02:35:18.920Z,79.68
2022-11-27T02:37:59.343Z,79.83
2022-11-27T02:40:39.117Z,79.92
2022-11-27T02:43:08.909Z,79.83
2022-11-27T02:45:45.507Z,79.85
2022-11-27T02:48:15.824Z,79.86
2022-11-27T02:50:46.001Z,80.89
2022-11-27T02:53:19.305Z,82.44
2022-11-27T02:55:48.783Z,81.92
2022-11-27T02:58:20.811Z,81.65
2022-11-27T03:00:49.024Z,81.35
2022-11-27T03:03:21.005Z,81.32
2022-11-27T03:05:51.640Z,81.63
2022-11-27T03:08:28.714Z,81.92
2022-11-27T03:11:05.414Z,81.61
2022-11-27T03:13:37.058Z,81.12
2022-11-27T03:16:29.529Z,82.42
2022-11-27T03:19:24.234Z,83.26
2022-11-27T03:21:56.071Z,84.02
2022-11-27T03:24:23.217Z,83.89
2022-11-27T03:26:50.422Z,84.46
2022-11-27T03:29:25.264Z,84.79
2022-11-27T03:31:52.266Z,84.85
2022-11-27T03:34:19.499Z,84.54
2022-11-27T03:36:46.946Z,84.30
2022-11-27T03:39:14.048Z,83.80
2022-11-27T03:42:02.506Z,83.72
2022-11-27T03:44:54.713Z,83.05
2022-11-27T03:47:52.436Z,83.03
2022-11-27T03:50:32.218Z,82.83
2022-11-27T03:53:25.128Z,82.78
2022-11-27T03:55:54.414Z,82.96
2022-11-27T03:58:26.742Z,83.21
2022-11-27T04:00:55.517Z,83.19
2022-11-27T04:03:29.271Z,82.75
2022-11-27T04:05:56.857Z,82.10
2022-11-27T04:08:23.659Z,81.65
2022-11-27T04:10:50.758Z,81.71
2022-11-27T04:13:17.456Z,81.56
2022-11-27T04:15:44.458Z,81.44
2022-11-27T04:18:11.837Z,81.37
2022-11-27T04:20:38.945Z,81.81
2022-11-27T04:23:05.896Z,82.08
2022-11-27T04:25:33.082Z,81.96
2022-11-27T04:27:59.895Z,81.96
2022-11-27T04:30:26.646Z,81.90
2022-11-27T04:32:53.726Z,82.01
2022-11-27T04:35:20.563Z,81.72
2022-11-27T04:37:47.280Z,81.72
2022-11-27T04:40:14.520Z,81.37
2022-11-27T04:42:41.704Z,81.16
2022-11-27T04:45:09.151Z,81.07
2022-11-27T04:47:36.130Z,81.12
2022-11-27T04:50:03.152Z,81.79
2022-11-27T04:52:29.803Z,81.24
2022-11-27T04:55:00.012Z,81.30
2022-11-27T04:57:27.439Z,81.22
2022-11-27T04:59:54.293Z,81.21
2022-11-27T05:02:21.337Z,81.52
2022-11-27T05:04:48.080Z,81.73
2022-11-27T05:07:14.797Z,81.84
2022-11-27T05:09:41.781Z,81.80
2022-11-27T05:12:08.583Z,82.54
2022-11-27T05:14:35.364Z,82.32
2022-11-27T05:17:02.750Z,81.95
2022-11-27T05:19:31.059Z,81.78
2022-11-27T05:21:57.950Z,81.80
2022-11-27T05:24:26.916Z,82.22
2022-11-27T05:26:54.220Z,82.21
2022-11-27T05:29:22.061Z,82.29
2022-11-27T05:31:48.936Z,82.04
2022-11-27T05:34:16.268Z,81.88
2022-11-27T05:36:43.540Z,81.92
2022-11-27T05:39:11.464Z,82.59
2022-11-27T05:41:40.690Z,82.67
2022-11-27T05:44:07.636Z,82.36
2022-11-27T05:46:34.730Z,82.66
2022-11-27T05:49:01.613Z,82.70
2022-11-27T05:51:28.284Z,82.66
2022-11-27T05:53:55.158Z,82.63
2022-11-27T05:56:22.096Z,82.52
2022-11-27T05:58:49.861Z,82.17
2022-11-27T06:01:18.046Z,82.15
2022-11-27T06:03:44.879Z,82.23
2022-11-27T06:06:16.915Z,82.39
2022-11-27T06:08:44.808Z,82.25
2022-11-27T06:11:17.830Z,82.15
2022-11-27T06:13:45.761Z,82.10
2022-11-27T06:16:15.484Z,82.22
2022-11-27T06:18:42.833Z,81.76
2022-11-27T06:21:11.775Z,82.35
2022-11-27T06:23:38.700Z,82.35
2022-11-27T06:26:25.137Z,82.62
2022-11-27T06:28:52.285Z,82.43
2022-11-27T06:31:24.783Z,82.27
2022-11-27T06:33:54.079Z,81.83
2022-11-27T06:36:22.061Z,81.57
2022-11-27T06:38:48.792Z,81.84
2022-11-27T06:41:18.936Z,82.08
2022-11-27T06:43:45.783Z,81.81
2022-11-27T06:46:15.818Z,81.94
2022-11-27T06:48:44.501Z,81.91
2022-11-27T06:51:14.081Z,82.03
2022-11-27T06:53:41.104Z,81.79
2022-11-27T06:56:10.726Z,81.34
2022-11-27T06:58:38.041Z,81.75
2022-11-27T07:01:07.849Z,81.57
2022-11-27T07:03:35.301Z,82.02
2022-11-27T07:06:07.887Z,81.61
2022-11-27T07:08:35.519Z,80.80
2022-11-27T07:11:11.215Z,80.09
2022-11-27T07:13:38.167Z,80.05
2022-11-27T07:16:08.296Z,79.99
2022-11-27T07:18:38.097Z,78.98
2022-11-27T07:21:05.125Z,79.29
2022-11-27T07:23:32.410Z,79.73
2022-11-27T07:25:59.568Z,79.35
2022-11-27T07:28:26.241Z,77.86
2022-11-27T07:30:57.047Z,77.71
2022-11-27T07:33:24.902Z,78.37
2022-11-27T07:35:59.585Z,78.44
2022-11-27T07:38:26.862Z,79.12
2022-11-27T07:40:54.018Z,79.14
2022-11-27T07:43:21.587Z,78.43
2022-11-27T07:45:48.497Z,78.37
2022-11-27T07:48:15.698Z,79.33
2022-11-27T07:50:42.659Z,78.69
2022-11-27T07:53:09.626Z,79.19
2022-11-27T07:55:39.631Z,79.58
2022-11-27T07:58:07.455Z,79.33
2022-11-27T08:00:35.399Z,79.01
2022-11-27T08:03:02.751Z,78.84
2022-11-27T08:05:30.472Z,78.12
2022-11-27T08:08:00.746Z,79.41
2022-11-27T08:10:27.693Z,79.79
2022-11-27T08:12:54.442Z,79.41
2022-11-27T08:15:21.281Z,79.31
2022-11-27T08:17:48.386Z,80.05
2022-11-27T08:20:15.458Z,80.50
2022-11-27T08:22:42.332Z,79.85
2022-11-27T08:25:09.752Z,80.21
2022-11-27T08:27:36.679Z,79.14
2022-11-27T08:30:05.347Z,78.04
2022-11-27T08:32:32.450Z,79.14
2022-11-27T08:34:59.268Z,79.14
2022-11-27T08:37:26.190Z,78.45
2022-11-27T08:39:53.021Z,78.19
2022-11-27T08:42:19.965Z,77.22
2022-11-27T08:44:46.953Z,76.93
2022-11-27T08:47:13.706Z,76.14
2022-11-27T08:49:44.906Z,75.38
2022-11-27T08:52:13.365Z,76.01
2022-11-27T08:54:40.223Z,75.07
2022-11-27T08:57:07.137Z,75.63
2022-11-27T08:59:34.041Z,75.43
2022-11-27T09:02:00.733Z,74.68
2022-11-27T09:04:28.999Z,73.75
2022-11-27T09:06:58.635Z,73.44
2022-11-27T09:09:25.785Z,74.50
2022-11-27T09:11:54.845Z,74.89
2022-11-27T09:14:21.908Z,74.55
2022-11-27T09:16:49.556Z,74.97
2022-11-27T09:19:17.313Z,75.39
2022-11-27T09:21:44.429Z,76.28
2022-11-27T11:25:54.546Z,67.12
2022-11-27T11:28:22.929Z,66.56
2022-11-27T13:01:08.211Z,69.14
2022-11-27T17:49:08.680Z,85.90
2022-11-27T17:51:44.472Z,86.24
2022-11-27T18:08:01.093Z,84.93
2022-11-27T18:24:23.439Z,85.80
2022-11-27T18:40:41.727Z,86.41
2022-11-27T18:43:30.205Z,86.00
